createdAt,value
2022-07-28T00:01:34.977Z,22.90
2022-07-28T00:04:23.653Z,22.90
2022-07-28T00:07:13.449Z,22.90
2022-07-28T00:10:03.918Z,22.90
2022-07-28T00:12:51.924Z,22.90
2022-07-28T00:15:40.338Z,22.90
2022-07-28T00:18:28.852Z,22.90
2022-07-28T00:21:17.667Z,22.90
2022-07-28T00:24:08.213Z,22.90
2022-07-28T00:26:56.763Z,22.90
2022-07-28T00:29:50.623Z,22.90
2022-07-28T00:32:39.757Z,22.90
2022-07-28T00:35:30.476Z,22.90
2022-07-28T00:38:19.446Z,22.90
2022-07-28T00:41:13.766Z,22.80
2022-07-28T00:44:02.855Z,22.90
2022-07-28T00:46:51.250Z,22.90
2022-07-28T00:49:40.868Z,22.90
2022-07-28T00:52:29.330Z,22.90
2022-07-28T00:55:18.389Z,22.80
2022-07-28T00:58:08.311Z,22.80
2022-07-28T01:00:57.291Z,22.80
2022-07-28T01:03:48.881Z,22.80
2022-07-28T01:06:50.850Z,22.80
2022-07-28T01:09:50.804Z,22.80
2022-07-28T01:12:49.854Z,22.90
2022-07-28T01:15:46.104Z,22.80
2022-07-28T01:18:43.022Z,22.80
2022-07-28T01:21:36.340Z,22.80
2022-07-28T01:24:29.149Z,22.80
2022-07-28T01:27:31.956Z,22.80
2022-07-28T01:30:36.348Z,22.80
2022-07-28T01:33:30.094Z,22.80
2022-07-28T01:36:23.901Z,22.80
2022-07-28T01:39:13.644Z,22.80
2022-07-28T01:42:04.307Z,22.80
2022-07-28T01:44:55.505Z,22.80
2022-07-28T01:47:47.832Z,22.80
2022-07-28T01:50:37.823Z,22.80
2022-07-28T01:53:27.387Z,22.80
2022-07-28T01:56:18.569Z,22.70
2022-07-28T01:59:09.959Z,22.70
2022-07-28T02:02:00.892Z,22.80
2022-07-28T02:04:51.407Z,22.70
2022-07-28T02:07:42.999Z,22.70
2022-07-28T02:10:31.287Z,22.70
2022-07-28T02:13:19.726Z,22.70
2022-07-28T02:16:11.402Z,22.70
2022-07-28T02:19:01.555Z,22.70
2022-07-28T02:21:51.720Z,22.70
2022-07-28T02:24:41.848Z,22.70
2022-07-28T02:27:37.606Z,22.70
2022-07-28T02:30:31.368Z,22.70
2022-07-28T02:33:58.776Z,22.70
2022-07-28T02:36:35.235Z,22.70
2022-07-28T02:39:29.754Z,22.70
2022-07-28T02:42:21.422Z,22.70
2022-07-28T02:45:13.154Z,22.70
2022-07-28T02:48:05.456Z,22.70
2022-07-28T02:50:56.060Z,22.70
2022-07-28T02:53:45.351Z,22.70
2022-07-28T02:56:36.744Z,22.70
2022-07-28T02:59:26.006Z,22.70
2022-07-28T03:02:15.242Z,22.70
2022-07-28T03:05:11.325Z,22.70
2022-07-28T03:08:00.716Z,22.70
2022-07-28T03:10:49.195Z,22.60
2022-07-28T03:13:39.530Z,22.60
2022-07-28T03:16:28.444Z,22.70
2022-07-28T03:19:17.101Z,22.60
2022-07-28T03:22:05.833Z,22.60
2022-07-28T03:25:00.875Z,22.60
2022-07-28T03:27:51.879Z,22.60
2022-07-28T03:30:45.926Z,22.60
2022-07-28T03:33:35.154Z,22.60
2022-07-28T03:36:30.457Z,22.60
2022-07-28T03:39:19.830Z,22.60
2022-07-28T03:42:10.393Z,22.60
2022-07-28T03:44:58.806Z,22.60
2022-07-28T03:47:55.346Z,22.60
2022-07-28T03:50:43.594Z,22.60
2022-07-28T03:53:32.176Z,22.60
2022-07-28T03:56:20.995Z,22.60
2022-07-28T03:59:10.505Z,22.60
2022-07-28T04:01:59.051Z,22.60
2022-07-28T04:04:48.609Z,22.60
2022-07-28T04:07:37.281Z,22.60
2022-07-28T04:10:25.890Z,22.50
2022-07-28T04:13:14.680Z,22.50
2022-07-28T04:16:02.934Z,22.60
2022-07-28T04:18:51.438Z,22.50
2022-07-28T04:21:41.616Z,22.50
2022-07-28T04:24:30.146Z,22.50
2022-07-28T04:27:18.735Z,22.50
2022-07-28T04:30:09.478Z,22.60
2022-07-28T04:32:58.273Z,22.50
2022-07-28T04:35:47.371Z,22.50
2022-07-28T04:38:37.789Z,22.50
2022-07-28T04:41:26.596Z,22.50
2022-07-28T04:44:17.376Z,22.50
2022-07-28T04:47:06.463Z,22.50
2022-07-28T04:49:55.187Z,22.50
2022-07-28T04:52:43.854Z,22.50
2022-07-28T04:55:34.267Z,22.50
2022-07-28T04:58:28.012Z,22.50
2022-07-28T05:01:21.770Z,22.50
2022-07-28T05:04:11.122Z,22.50
2022-07-28T05:07:00.613Z,22.50
2022-07-28T05:09:49.002Z,22.50
2022-07-28T05:12:39.363Z,22.50
2022-07-28T05:15:27.916Z,22.50
2022-07-28T05:18:16.843Z,22.50
2022-07-28T05:21:05.041Z,22.50
2022-07-28T05:23:53.621Z,22.50
2022-07-28T05:26:41.903Z,22.40
2022-07-28T05:29:35.176Z,22.40
2022-07-28T05:32:35.946Z,22.40
2022-07-28T05:35:24.060Z,22.40
2022-07-28T05:38:12.644Z,22.40
2022-07-28T05:41:01.150Z,22.40
2022-07-28T05:43:49.818Z,22.40
2022-07-28T05:46:39.824Z,22.40
2022-07-28T05:49:28.188Z,22.40
2022-07-28T05:52:16.254Z,22.40
2022-07-28T05:55:06.141Z,22.40
2022-07-28T05:57:55.280Z,22.40
2022-07-28T06:00:44.290Z,22.40
2022-07-28T06:03:41.844Z,22.40
2022-07-28T06:06:31.116Z,22.40
2022-07-28T06:09:19.231Z,22.40
2022-07-28T06:12:08.245Z,22.30
2022-07-28T06:14:56.295Z,22.30
2022-07-28T06:17:45.547Z,22.30
2022-07-28T06:20:35.801Z,22.30
2022-07-28T06:23:24.917Z,22.30
2022-07-28T06:26:13.970Z,22.30
2022-07-28T06:29:02.177Z,22.30
2022-07-28T06:31:50.741Z,22.30
2022-07-28T06:34:39.223Z,22.30
2022-07-28T06:37:29.678Z,22.30
2022-07-28T06:40:19.309Z,22.30
2022-07-28T06:43:08.523Z,22.30
2022-07-28T06:45:57.132Z,22.30
2022-07-28T06:48:46.196Z,22.30
2022-07-28T06:51:34.879Z,22.30
2022-07-28T06:54:28.633Z,22.30
2022-07-28T06:57:17.533Z,22.30
2022-07-28T07:00:08.368Z,22.30
2022-07-28T07:02:57.134Z,22.30
2022-07-28T07:05:45.437Z,22.30
2022-07-28T07:08:37.863Z,22.30
2022-07-28T07:11:28.123Z,22.30
2022-07-28T07:14:16.919Z,22.30
2022-07-28T07:17:05.313Z,22.30
2022-07-28T07:19:53.573Z,22.30
2022-07-28T07:22:45.636Z,22.30
2022-07-28T07:25:33.850Z,22.30
2022-07-28T07:28:23.521Z,22.30
2022-07-28T07:31:12.932Z,22.30
2022-07-28T07:34:01.290Z,22.30
2022-07-28T07:36:50.129Z,22.30
2022-07-28T07:39:38.306Z,22.30
2022-07-28T07:42:26.959Z,22.30
2022-07-28T07:45:16.547Z,22.20
2022-07-28T07:48:05.330Z,22.20
2022-07-28T07:50:54.404Z,22.30
2022-07-28T07:53:43.120Z,22.20
2022-07-28T07:56:31.909Z,22.20
2022-07-28T07:59:20.593Z,22.30
2022-07-28T08:02:10.894Z,22.20
2022-07-28T08:05:00.850Z,22.20
2022-07-28T08:07:49.934Z,22.20
2022-07-28T08:10:40.267Z,22.20
2022-07-28T08:13:28.483Z,22.20
2022-07-28T08:16:17.214Z,22.20
2022-07-28T08:19:07.353Z,22.20
2022-07-28T08:21:57.462Z,22.20
2022-07-28T08:24:45.991Z,22.20
2022-07-28T08:27:34.923Z,22.20
2022-07-28T08:30:25.255Z,22.20
2022-07-28T08:33:22.059Z,22.20
2022-07-28T08:36:11.741Z,22.20
2022-07-28T08:39:00.378Z,22.20
2022-07-28T08:42:03.211Z,22.20
2022-07-28T08:44:56.352Z,22.20
2022-07-28T08:48:07.158Z,22.20
2022-07-28T08:50:57.770Z,22.20
2022-07-28T08:53:49.278Z,22.20
2022-07-28T08:56:41.553Z,22.20
2022-07-28T08:59:38.148Z,22.10
2022-07-28T09:02:29.304Z,22.20
2022-07-28T09:05:18.207Z,22.10
2022-07-28T09:08:07.618Z,22.20
2022-07-28T09:10:57.654Z,22.20
2022-07-28T09:13:48.755Z,22.20
2022-07-28T09:16:39.752Z,22.10
2022-07-28T09:19:28.267Z,22.20
2022-07-28T09:22:23.500Z,22.10
2022-07-28T09:25:20.352Z,22.10
2022-07-28T09:28:12.167Z,22.10
2022-07-28T09:31:08.288Z,22.10
2022-07-28T09:34:02.881Z,22.10
2022-07-28T09:36:51.235Z,22.10
2022-07-28T09:39:39.463Z,22.10
2022-07-28T09:42:28.205Z,22.10
2022-07-28T09:45:23.542Z,22.10
2022-07-28T09:48:14.071Z,22.10
2022-07-28T09:51:14.219Z,22.10
2022-07-28T09:54:10.711Z,22.10
2022-07-28T09:56:59.966Z,22.10
2022-07-28T09:59:50.808Z,22.10
2022-07-28T10:02:51.403Z,22.10
2022-07-28T10:05:43.778Z,22.10
2022-07-28T10:08:43.298Z,22.10
2022-07-28T10:11:32.240Z,22.10
2022-07-28T10:14:32.442Z,22.10
2022-07-28T10:17:25.347Z,22.10
2022-07-28T10:20:16.695Z,22.10
2022-07-28T10:23:07.239Z,22.10
2022-07-28T10:25:58.068Z,22.10
2022-07-28T10:28:51.117Z,22.10
2022-07-28T10:31:46.439Z,22.10
2022-07-28T10:34:39.044Z,22.10
2022-07-28T10:37:32.096Z,22.10
2022-07-28T10:40:25.841Z,22.10
2022-07-28T10:43:14.853Z,22.10
2022-07-28T10:46:07.553Z,22.10
2022-07-28T10:48:59.251Z,22.10
2022-07-28T10:52:06.464Z,22.20
2022-07-28T10:55:04.781Z,22.10
2022-07-28T10:58:11.381Z,22.20
2022-07-28T11:01:05.995Z,22.20
2022-07-28T11:03:54.720Z,22.10
2022-07-28T11:06:46.182Z,22.10
2022-07-28T11:09:35.620Z,22.10
2022-07-28T11:12:49.822Z,22.10
2022-07-28T11:15:38.730Z,22.10
2022-07-28T11:18:27.769Z,22.20
2022-07-28T11:21:17.180Z,22.20
2022-07-28T11:24:06.435Z,22.10
2022-07-28T11:26:55.774Z,22.20
2022-07-28T11:29:49.188Z,22.10
2022-07-28T11:32:58.243Z,22.20
2022-07-28T11:35:56.767Z,22.20
2022-07-28T11:39:26.112Z,22.10
2022-07-28T11:42:28.397Z,22.10
2022-07-28T11:45:38.695Z,22.10
2022-07-28T11:48:30.372Z,22.10
2022-07-28T11:51:18.819Z,22.10
2022-07-28T11:54:17.947Z,22.10
2022-07-28T11:57:09.900Z,22.20
2022-07-28T12:00:03.551Z,22.10
2022-07-28T12:02:55.597Z,22.10
2022-07-28T12:05:44.489Z,22.10
2022-07-28T12:08:54.012Z,22.10
2022-07-28T12:11:43.863Z,22.10
2022-07-28T12:14:39.221Z,22.10
2022-07-28T12:17:35.189Z,22.10
2022-07-28T12:20:24.859Z,22.10
2022-07-28T12:23:14.143Z,22.10
2022-07-28T12:26:04.939Z,22.10
2022-07-28T12:28:56.009Z,22.10
2022-07-28T12:32:00.038Z,22.10
2022-07-28T12:34:49.543Z,22.10
2022-07-28T12:37:39.798Z,22.10
2022-07-28T12:40:31.176Z,22.10
2022-07-28T12:43:23.156Z,22.10
2022-07-28T12:46:11.830Z,22.10
2022-07-28T12:49:01.612Z,22.10
2022-07-28T12:51:50.457Z,22.10
2022-07-28T12:54:40.017Z,22.10
2022-07-28T12:57:46.108Z,22.10
2022-07-28T13:00:37.725Z,22.10
2022-07-28T13:03:27.951Z,22.10
2022-07-28T13:06:16.383Z,22.10
2022-07-28T13:09:05.594Z,22.10
2022-07-28T13:12:02.336Z,22.10
2022-07-28T13:14:53.149Z,22.10
2022-07-28T13:17:51.017Z,22.10
2022-07-28T13:20:49.556Z,22.20
2022-07-28T13:23:37.849Z,22.20
2022-07-28T13:26:26.538Z,22.20
2022-07-28T13:29:16.878Z,22.20
2022-07-28T13:32:05.831Z,22.20
2022-07-28T13:34:54.611Z,22.10
2022-07-28T13:37:43.001Z,22.10
2022-07-28T13:40:31.248Z,22.10
2022-07-28T13:43:19.635Z,22.10
2022-07-28T13:46:10.752Z,22.20
2022-07-28T13:49:00.260Z,22.10
2022-07-28T13:51:48.797Z,22.10
2022-07-28T13:54:39.913Z,22.10
2022-07-28T13:57:28.370Z,22.20
2022-07-28T14:00:18.700Z,22.10
2022-07-28T14:03:08.845Z,22.20
2022-07-28T14:06:00.071Z,22.10
2022-07-28T14:08:48.928Z,22.10
2022-07-28T14:11:41.457Z,22.20
2022-07-28T14:14:38.620Z,22.20
2022-07-28T14:17:46.043Z,22.20
2022-07-28T14:20:36.921Z,22.20
2022-07-28T14:23:25.429Z,22.20
2022-07-28T14:26:34.865Z,22.20
2022-07-28T14:29:24.083Z,22.20
2022-07-28T14:32:12.890Z,22.20
2022-07-28T14:35:02.405Z,22.20
2022-07-28T14:41:01.890Z,22.20
2022-07-28T14:43:50.773Z,22.20
2022-07-28T14:46:39.216Z,22.20
2022-07-28T14:49:28.309Z,22.20
2022-07-28T14:52:16.955Z,22.20
2022-07-28T14:55:07.678Z,22.20
2022-07-28T14:57:56.333Z,22.20
2022-07-28T15:00:44.643Z,22.20
2022-07-28T15:03:36.433Z,22.20
2022-07-28T15:06:26.469Z,22.20
2022-07-28T15:09:15.610Z,22.20
2022-07-28T15:12:05.600Z,22.20
2022-07-28T15:14:54.488Z,22.20
2022-07-28T15:17:43.687Z,22.20
2022-07-28T15:20:32.504Z,22.20
2022-07-28T15:23:20.980Z,22.20
2022-07-28T15:26:10.412Z,22.20
2022-07-28T15:29:00.827Z,22.20
2022-07-28T15:31:49.994Z,22.30
2022-07-28T15:34:38.245Z,22.30
2022-07-28T15:37:28.049Z,22.20
2022-07-28T15:40:16.269Z,22.30
2022-07-28T15:43:05.179Z,22.30
2022-07-28T15:45:57.299Z,22.20
2022-07-28T15:48:47.197Z,22.30
2022-07-28T15:51:36.851Z,22.30
2022-07-28T15:54:25.503Z,22.30
2022-07-28T15:57:14.214Z,22.30
2022-07-28T16:00:02.815Z,22.30
2022-07-28T16:02:54.996Z,22.20
2022-07-28T16:05:48.800Z,22.30
2022-07-28T16:08:37.316Z,22.30
2022-07-28T16:11:25.903Z,22.20
2022-07-28T16:14:14.969Z,22.20
2022-07-28T16:17:03.305Z,22.30
2022-07-28T16:19:54.235Z,22.20
2022-07-28T16:22:43.433Z,22.20
2022-07-28T16:25:32.144Z,22.30
2022-07-28T16:28:20.658Z,22.30
2022-07-28T16:31:09.594Z,22.30
2022-07-28T16:33:59.230Z,22.30
2022-07-28T16:36:49.868Z,22.30
2022-07-28T16:39:38.665Z,22.30
2022-07-28T16:42:27.013Z,22.30
2022-07-28T16:45:15.554Z,22.30
2022-07-28T16:48:04.981Z,22.30
2022-07-28T16:50:53.505Z,22.30
2022-07-28T16:53:43.021Z,22.30
2022-07-28T16:56:31.443Z,22.30
2022-07-28T16:59:19.836Z,22.30
2022-07-28T17:02:08.400Z,22.30
2022-07-28T17:04:56.829Z,22.30
2022-07-28T17:07:46.251Z,22.20
2022-07-28T17:10:36.159Z,22.30
2022-07-28T17:13:25.751Z,22.30
2022-07-28T17:16:14.219Z,22.20
2022-07-28T17:19:03.289Z,22.30
2022-07-28T17:21:51.722Z,22.20
2022-07-28T17:24:40.306Z,22.20
2022-07-28T17:27:37.339Z,22.20
2022-07-28T17:30:26.298Z,22.20
2022-07-28T17:33:18.096Z,22.20
2022-07-28T17:36:07.222Z,22.20
2022-07-28T17:38:55.665Z,22.20
2022-07-28T17:41:44.462Z,22.20
2022-07-28T17:44:34.181Z,22.20
2022-07-28T17:47:24.526Z,22.20
2022-07-28T17:50:24.403Z,22.20
2022-07-28T17:53:13.263Z,22.20
2022-07-28T17:56:02.307Z,22.20
2022-07-28T17:58:55.156Z,22.20
2022-07-28T18:01:45.664Z,22.20
2022-07-28T18:04:34.109Z,22.20
2022-07-28T18:07:22.244Z,22.20
2022-07-28T18:10:11.032Z,22.20
2022-07-28T18:12:59.244Z,22.20
2022-07-28T18:15:47.873Z,22.20
2022-07-28T18:18:37.603Z,22.20
2022-07-28T18:21:26.779Z,22.20
2022-07-28T18:24:15.209Z,22.20
2022-07-28T18:27:03.501Z,22.20
2022-07-28T18:29:52.246Z,22.20
2022-07-28T18:32:40.789Z,22.20
2022-07-28T18:35:31.272Z,22.20
2022-07-28T18:38:19.784Z,22.20
2022-07-28T18:41:08.471Z,22.20
2022-07-28T18:43:56.825Z,22.20
2022-07-28T18:46:45.692Z,22.20
2022-07-28T18:49:37.575Z,22.30
2022-07-28T18:52:27.380Z,22.20
2022-07-28T18:55:15.704Z,22.20
2022-07-28T18:58:04.173Z,22.20
2022-07-28T19:00:52.528Z,22.20
2022-07-28T19:03:41.091Z,22.20
2022-07-28T19:06:30.182Z,22.20
2022-07-28T19:09:20.563Z,22.20
2022-07-28T19:12:09.603Z,22.20
2022-07-28T19:14:59.096Z,22.30
2022-07-28T19:18:10.022Z,22.30
2022-07-28T19:20:56.392Z,22.20
2022-07-28T19:23:44.506Z,22.20
2022-07-28T19:26:35.191Z,22.30
2022-07-28T19:29:25.103Z,22.30
2022-07-28T19:32:13.498Z,22.30
2022-07-28T19:35:03.921Z,22.30
2022-07-28T19:37:52.053Z,22.30
2022-07-28T19:40:41.895Z,22.30
2022-07-28T19:43:32.610Z,22.30
2022-07-28T19:46:20.763Z,22.30
2022-07-28T19:49:09.545Z,22.30
2022-07-28T19:51:57.765Z,22.30
2022-07-28T19:54:51.029Z,22.30
2022-07-28T19:57:42.204Z,22.30
2022-07-28T20:00:31.886Z,22.30
2022-07-28T20:04:02.565Z,22.30
2022-07-28T20:06:29.768Z,22.20
2022-07-28T20:09:20.284Z,22.20
2022-07-28T20:12:09.335Z,22.20
2022-07-28T20:14:59.145Z,22.30
2022-07-28T20:17:48.960Z,22.30
2022-07-28T20:20:37.237Z,22.30
2022-07-28T20:23:25.687Z,22.30
2022-07-28T20:26:14.508Z,22.30
2022-07-28T20:29:05.134Z,22.30
2022-07-28T20:31:54.034Z,22.20
2022-07-28T20:34:43.919Z,22.20
2022-07-28T20:37:36.846Z,22.20
2022-07-28T20:40:25.730Z,22.20
2022-07-28T20:43:14.356Z,22.20
2022-07-28T20:46:03.077Z,22.20
2022-07-28T20:48:51.880Z,22.30
2022-07-28T20:51:50.626Z,22.20
2022-07-28T20:54:40.316Z,22.20
2022-07-28T20:57:28.453Z,22.20
2022-07-28T21:00:17.910Z,22.30
2022-07-28T21:03:06.940Z,22.20
2022-07-28T21:05:55.539Z,22.20
2022-07-28T21:08:46.425Z,22.20
2022-07-28T21:11:37.657Z,22.20
2022-07-28T21:14:26.220Z,22.20
2022-07-28T21:17:14.716Z,22.20
2022-07-28T21:20:03.494Z,22.20
2022-07-28T21:22:52.299Z,22.20
2022-07-28T21:25:42.796Z,22.20
2022-07-28T21:28:51.528Z,22.20
2022-07-28T21:32:03.798Z,22.20
2022-07-28T21:34:48.636Z,22.20
2022-07-28T21:37:36.988Z,22.20
2022-07-28T21:40:25.876Z,22.20
2022-07-28T21:43:16.120Z,22.20
2022-07-28T21:46:05.505Z,22.20
2022-07-28T21:48:54.754Z,22.20
2022-07-28T21:51:43.595Z,22.20
2022-07-28T21:54:32.018Z,22.20
2022-07-28T21:57:24.798Z,22.20
2022-07-28T22:00:17.621Z,22.20
2022-07-28T22:03:05.806Z,22.20
2022-07-28T22:05:54.284Z,22.20
2022-07-28T22:08:42.778Z,22.20
2022-07-28T22:11:31.274Z,22.20
2022-07-28T22:14:19.717Z,22.20
2022-07-28T22:17:10.361Z,22.20
2022-07-28T22:19:58.909Z,22.20
2022-07-28T22:22:47.532Z,22.20
2022-07-28T22:25:35.945Z,22.20
2022-07-28T22:28:29.747Z,22.20
2022-07-28T22:31:19.144Z,22.20
2022-07-28T22:34:09.400Z,22.20
2022-07-28T22:36:57.950Z,22.20
2022-07-28T22:39:46.496Z,22.20
2022-07-28T22:42:34.586Z,22.20
2022-07-28T22:45:50.763Z,22.20
2022-07-28T22:48:31.818Z,22.20
2022-07-28T22:51:21.779Z,22.20
2022-07-28T22:54:10.255Z,22.20
2022-07-28T22:56:58.401Z,22.20
2022-07-28T22:59:51.042Z,22.20
2022-07-28T23:02:39.519Z,22.20
2022-07-28T23:05:28.016Z,22.20
2022-07-28T23:08:17.846Z,22.20
2022-07-28T23:11:07.161Z,22.20
2022-07-28T23:13:55.660Z,22.20
2022-07-28T23:16:43.941Z,22.20
2022-07-28T23:19:32.656Z,22.20
2022-07-28T23:22:21.153Z,22.20
2022-07-28T23:25:11.574Z,22.20
2022-07-28T23:28:00.655Z,22.20
2022-07-28T23:30:51.830Z,22.20
2022-07-28T23:33:55.290Z,22.20
2022-07-28T23:36:45.694Z,22.20
2022-07-28T23:39:34.640Z,22.20
2022-07-28T23:42:24.668Z,22.20
2022-07-28T23:45:13.483Z,22.20
2022-07-28T23:48:01.613Z,22.20
2022-07-28T23:50:50.437Z,22.20
2022-07-28T23:53:39.856Z,22.20
2022-07-28T23:56:28.619Z,22.20
2022-07-28T23:59:18.836Z,22.10
